Time;durP1;ratioP1;P1;durP2;ratioP2;P2;SDS_P1;SDS_P2;PMS_P1;PMS_P2;Temp;Humidity;BMP_temperature;BMP_pressure;BME280_temperature;BME280_humidity;BME280_pressure;Samples;Min_cycle;Max_cycle;Signal;HPM_P1;HPM_P2
2023/01/30 00:01:52;;;;;;;28.77;22.40;;;;;;;;;;5095071;28;20609;-81
2023/01/30 00:04:18;;;;;;;30.53;22.37;;;;;;;;;;5098548;28;20186;-78
2023/01/30 00:06:44;;;;;;;28.30;21.53;;;;;;;;;;5100003;28;20552;-79
2023/01/30 00:09:13;;;;;;;31.67;22.27;;;;;;;;;;5094896;28;20222;-81
2023/01/30 00:11:39;;;;;;;31.37;22.53;;;;;;;;;;5108618;28;20271;-80
2023/01/30 00:14:05;;;;;;;26.97;21.40;;;;;;;;;;5099838;27;20287;-79
2023/01/30 00:16:31;;;;;;;28.43;21.03;;;;;;;;;;5106953;27;20176;-79
2023/01/30 00:18:57;;;;;;;29.50;21.23;;;;;;;;;;5112423;27;20179;-80
2023/01/30 00:21:23;;;;;;;25.87;20.73;;;;;;;;;;5108320;27;20644;-79
2023/01/30 00:23:49;;;;;;;25.87;20.37;;;;;;;;;;5106417;27;20187;-79
2023/01/30 00:26:15;;;;;;;25.83;20.43;;;;;;;;;;5098481;28;20591;-78
2023/01/30 00:28:41;;;;;;;26.47;21.10;;;;;;;;;;5110184;28;20199;-80
2023/01/30 00:31:07;;;;;;;27.03;21.13;;;;;;;;;;5110193;27;20277;-80
2023/01/30 00:33:35;;;;;;;28.67;21.57;;;;;;;;;;5108733;28;20235;-79
2023/01/30 00:36:01;;;;;;;26.63;21.40;;;;;;;;;;5102052;28;20240;-79
2023/01/30 00:38:28;;;;;;;28.00;21.87;;;;;;;;;;5108550;28;20612;-79
2023/01/30 00:40:54;;;;;;;26.80;20.50;;;;;;;;;;5107990;28;20628;-78
2023/01/30 00:49:17;;;;;;;27.67;21.10;;;;;;;;;;5044222;28;20185;-79
2023/01/30 00:51:43;;;;;;;27.30;20.83;;;;;;;;;;5036749;28;20285;-80
2023/01/30 00:54:09;;;;;;;25.03;18.90;;;;;;;;;;5016683;28;20206;-80
2023/01/30 00:56:35;;;;;;;25.57;20.07;;;;;;;;;;5044048;28;20202;-80
2023/01/30 00:59:01;;;;;;;24.80;19.57;;;;;;;;;;5026099;28;20674;-77
2023/01/30 01:01:27;;;;;;;24.40;19.03;;;;;;;;;;5020950;28;20204;-81
2023/01/30 01:03:53;;;;;;;22.80;18.13;;;;;;;;;;5024570;28;20189;-79
2023/01/30 01:06:19;;;;;;;26.43;17.20;;;;;;;;;;5003011;28;20182;-80
2023/01/30 01:08:45;;;;;;;21.07;17.83;;;;;;;;;;5011962;28;20227;-79
2023/01/30 01:11:22;;;;;;;23.17;18.03;;;;;;;;;;5031444;28;20278;-79
2023/01/30 01:13:49;;;;;;;21.57;16.27;;;;;;;;;;5002580;28;21066;-80
2023/01/30 01:16:15;;;;;;;21.27;17.50;;;;;;;;;;5017973;28;20195;-81
2023/01/30 01:18:41;;;;;;;20.07;16.43;;;;;;;;;;5020863;28;20650;-79
2023/01/30 01:21:06;;;;;;;20.63;16.07;;;;;;;;;;5016397;28;20223;-79
2023/01/30 01:23:32;;;;;;;20.93;16.23;;;;;;;;;;5081492;28;20198;-80
2023/01/30 01:26:01;;;;;;;21.37;15.97;;;;;;;;;;5102370;28;20541;-80
2023/01/30 01:28:27;;;;;;;18.63;14.97;;;;;;;;;;5097572;28;20177;-80
2023/01/30 01:30:53;;;;;;;20.53;15.67;;;;;;;;;;5102489;28;20273;-80
2023/01/30 01:33:19;;;;;;;18.90;15.07;;;;;;;;;;5108743;28;20658;-80
2023/01/30 01:35:46;;;;;;;16.43;12.53;;;;;;;;;;5101972;28;20244;-79
2023/01/30 01:38:13;;;;;;;18.67;14.80;;;;;;;;;;5107795;28;20270;-78
2023/01/30 01:43:24;;;;;;;18.93;14.57;;;;;;;;;;5103616;28;20706;-80
2023/01/30 01:45:59;;;;;;;16.07;13.57;;;;;;;;;;5108298;28;20187;-80
2023/01/30 01:48:31;;;;;;;16.83;13.93;;;;;;;;;;5103445;28;20411;-80
2023/01/30 01:50:58;;;;;;;16.63;14.00;;;;;;;;;;5106457;28;20184;-80
2023/01/30 01:54:01;;;;;;;15.57;13.57;;;;;;;;;;5104203;28;20188;-78
2023/01/30 01:56:28;;;;;;;17.23;13.63;;;;;;;;;;5094997;28;20214;-80
2023/01/30 01:58:57;;;;;;;15.73;13.07;;;;;;;;;;5106469;28;20179;-79
2023/01/30 02:01:23;;;;;;;17.30;13.63;;;;;;;;;;5104100;28;20255;-79
2023/01/30 02:03:52;;;;;;;16.50;13.57;;;;;;;;;;5108159;28;20183;-79
2023/01/30 02:06:19;;;;;;;17.97;13.83;;;;;;;;;;5101340;28;20580;-79
2023/01/30 02:08:46;;;;;;;18.23;14.70;;;;;;;;;;5093948;28;20183;-80
2023/01/30 02:11:15;;;;;;;18.67;15.10;;;;;;;;;;5107801;28;20187;-79
2023/01/30 02:13:41;;;;;;;18.37;15.93;;;;;;;;;;5101416;28;20196;-79
2023/01/30 02:16:08;;;;;;;21.80;16.87;;;;;;;;;;5108273;28;20187;-80
2023/01/30 02:18:35;;;;;;;21.13;15.70;;;;;;;;;;5100950;28;20267;-80
2023/01/30 02:21:20;;;;;;;20.17;15.57;;;;;;;;;;5095926;28;20177;-78
2023/01/30 02:23:56;;;;;;;22.43;15.73;;;;;;;;;;5107881;28;20582;-80
2023/01/30 02:26:28;;;;;;;21.33;15.97;;;;;;;;;;5106272;28;20183;-79
2023/01/30 02:29:06;;;;;;;21.50;16.50;;;;;;;;;;5094439;28;20630;-79
2023/01/30 02:31:32;;;;;;;19.00;15.07;;;;;;;;;;5109099;28;20199;-80
2023/01/30 02:33:58;;;;;;;18.87;15.17;;;;;;;;;;5109820;28;20679;-80
2023/01/30 02:36:42;;;;;;;19.70;15.27;;;;;;;;;;5102260;28;20198;-78
2023/01/30 02:39:19;;;;;;;18.53;14.87;;;;;;;;;;5105018;28;20196;-82
2023/01/30 02:41:45;;;;;;;19.60;14.87;;;;;;;;;;5111977;27;20225;-81
2023/01/30 02:44:29;;;;;;;21.87;15.50;;;;;;;;;;5101124;28;20644;-80
2023/01/30 02:47:03;;;;;;;18.53;14.07;;;;;;;;;;5100828;28;20251;-79
2023/01/30 02:49:29;;;;;;;17.30;13.70;;;;;;;;;;5114370;27;20180;-81
2023/01/30 02:51:56;;;;;;;18.57;13.43;;;;;;;;;;5108611;27;20203;-80
2023/01/30 02:54:22;;;;;;;17.83;13.97;;;;;;;;;;5110664;27;20199;-79
2023/01/30 02:56:48;;;;;;;19.77;14.13;;;;;;;;;;5097244;27;20191;-79
2023/01/30 02:59:16;;;;;;;19.93;14.73;;;;;;;;;;5098843;27;20648;-79
2023/01/30 03:01:54;;;;;;;20.53;15.27;;;;;;;;;;5108099;28;20620;-79
2023/01/30 03:04:34;;;;;;;22.23;14.77;;;;;;;;;;5107591;27;20550;-80
2023/01/30 03:07:16;;;;;;;17.73;14.27;;;;;;;;;;5100119;27;20184;-81
2023/01/30 03:09:48;;;;;;;21.60;16.40;;;;;;;;;;5101301;27;20184;-81
2023/01/30 03:12:21;;;;;;;21.60;15.73;;;;;;;;;;5109830;27;20522;-81
2023/01/30 03:15:03;;;;;;;23.20;15.07;;;;;;;;;;5099072;28;20204;-81
2023/01/30 03:17:29;;;;;;;21.40;15.03;;;;;;;;;;5100971;27;20356;-80
2023/01/30 03:19:55;;;;;;;21.40;14.90;;;;;;;;;;5096404;28;20200;-80
2023/01/30 03:22:22;;;;;;;21.57;15.67;;;;;;;;;;5102322;28;20219;-80
2023/01/30 03:24:49;;;;;;;20.90;16.03;;;;;;;;;;5103769;28;20188;-80
2023/01/30 03:27:15;;;;;;;21.80;16.20;;;;;;;;;;5105895;27;20185;-80
2023/01/30 03:29:41;;;;;;;25.03;17.27;;;;;;;;;;5103115;27;20417;-81
2023/01/30 03:32:07;;;;;;;23.13;17.00;;;;;;;;;;5094960;27;20668;-79
2023/01/30 03:34:33;;;;;;;24.43;18.40;;;;;;;;;;5099787;28;20201;-81
2023/01/30 03:36:59;;;;;;;23.53;18.30;;;;;;;;;;5110168;27;20645;-80
2023/01/30 03:39:25;;;;;;;25.20;17.83;;;;;;;;;;5104308;27;20176;-81
2023/01/30 03:41:52;;;;;;;27.33;19.73;;;;;;;;;;5110888;27;20176;-82
2023/01/30 03:44:18;;;;;;;26.10;19.47;;;;;;;;;;5094304;27;20708;-80
2023/01/30 03:46:44;;;;;;;28.47;21.30;;;;;;;;;;5094640;28;20681;-81
2023/01/30 03:49:10;;;;;;;26.93;20.03;;;;;;;;;;5105659;28;20176;-80
2023/01/30 03:51:36;;;;;;;25.97;19.23;;;;;;;;;;5099821;27;20198;-81
2023/01/30 03:54:02;;;;;;;27.90;19.80;;;;;;;;;;5108575;28;20231;-81
2023/01/30 03:56:28;;;;;;;28.47;20.23;;;;;;;;;;5112991;27;20232;-80
2023/01/30 03:58:54;;;;;;;27.80;20.00;;;;;;;;;;5103193;28;20255;-79
2023/01/30 04:01:20;;;;;;;27.20;20.23;;;;;;;;;;5110031;27;20187;-80
2023/01/30 04:03:46;;;;;;;25.37;19.40;;;;;;;;;;5102026;28;20199;-81
2023/01/30 04:06:12;;;;;;;29.10;20.20;;;;;;;;;;5105678;28;20176;-81
2023/01/30 04:08:38;;;;;;;26.23;18.40;;;;;;;;;;5100354;28;20228;-80
2023/01/30 04:11:04;;;;;;;22.70;17.33;;;;;;;;;;5094078;28;20180;-80
2023/01/30 04:13:30;;;;;;;24.70;18.83;;;;;;;;;;5108215;28;20267;-79
2023/01/30 04:16:16;;;;;;;24.37;17.60;;;;;;;;;;5101455;28;20713;-79
2023/01/30 04:18:42;;;;;;;23.50;17.40;;;;;;;;;;5106693;28;20663;-80
2023/01/30 04:21:08;;;;;;;22.50;15.97;;;;;;;;;;5096570;28;20184;-80
2023/01/30 04:23:34;;;;;;;24.57;16.83;;;;;;;;;;5109267;28;20180;-81
2023/01/30 04:26:00;;;;;;;22.13;16.80;;;;;;;;;;5094670;28;20640;-80
2023/01/30 04:28:26;;;;;;;22.60;15.83;;;;;;;;;;5097202;28;20188;-81
2023/01/30 04:30:52;;;;;;;20.00;15.47;;;;;;;;;;5104753;28;20191;-80
2023/01/30 04:33:18;;;;;;;22.40;16.10;;;;;;;;;;5098119;28;20220;-79
2023/01/30 04:35:58;;;;;;;20.80;15.20;;;;;;;;;;5104405;28;20692;-81
2023/01/30 04:38:24;;;;;;;17.70;13.90;;;;;;;;;;5093996;28;20194;-81
2023/01/30 04:40:54;;;;;;;17.77;13.63;;;;;;;;;;5104886;28;20543;-79
2023/01/30 04:43:20;;;;;;;18.20;12.90;;;;;;;;;;5104304;28;20194;-80
2023/01/30 04:45:47;;;;;;;21.20;14.20;;;;;;;;;;5101274;28;20175;-81
2023/01/30 04:48:14;;;;;;;17.53;12.80;;;;;;;;;;5113967;28;20194;-80
2023/01/30 04:50:41;;;;;;;20.07;13.23;;;;;;;;;;5110564;28;20205;-79
2023/01/30 04:53:07;;;;;;;18.33;12.70;;;;;;;;;;5090688;28;20184;-77
2023/01/30 04:55:33;;;;;;;18.70;13.07;;;;;;;;;;5097859;28;20196;-79
2023/01/30 04:57:59;;;;;;;18.93;13.30;;;;;;;;;;5105694;28;20217;-81
2023/01/30 05:00:25;;;;;;;14.80;11.60;;;;;;;;;;5106347;27;20192;-79
2023/01/30 05:02:51;;;;;;;14.13;11.20;;;;;;;;;;5098459;27;20184;-81
2023/01/30 05:05:17;;;;;;;16.30;12.37;;;;;;;;;;5095690;27;20215;-79
2023/01/30 05:07:43;;;;;;;18.93;12.67;;;;;;;;;;5113902;27;20175;-80
2023/01/30 05:10:10;;;;;;;17.57;12.83;;;;;;;;;;5109281;27;20647;-79
2023/01/30 05:12:36;;;;;;;16.47;11.23;;;;;;;;;;5117279;27;20185;-78
2023/01/30 05:15:02;;;;;;;15.60;11.57;;;;;;;;;;5114330;27;20626;-79
2023/01/30 05:17:28;;;;;;;16.07;11.80;;;;;;;;;;5108567;27;20524;-80
2023/01/30 05:19:54;;;;;;;16.43;12.43;;;;;;;;;;5108316;28;20180;-81
2023/01/30 05:22:20;;;;;;;14.37;11.47;;;;;;;;;;5114465;27;20542;-78
2023/01/30 05:24:46;;;;;;;13.50;10.70;;;;;;;;;;5105271;27;20188;-80
2023/01/30 05:27:12;;;;;;;15.53;11.50;;;;;;;;;;5111918;27;20183;-79
2023/01/30 05:29:38;;;;;;;14.90;11.63;;;;;;;;;;5109036;27;20535;-78
2023/01/30 05:32:04;;;;;;;14.33;10.80;;;;;;;;;;5098142;28;20216;-78
2023/01/30 05:34:30;;;;;;;17.73;12.93;;;;;;;;;;5105030;28;20207;-80
2023/01/30 05:36:56;;;;;;;17.63;12.00;;;;;;;;;;5105651;28;20184;-79
2023/01/30 05:39:22;;;;;;;14.53;11.30;;;;;;;;;;5103901;28;20192;-78
2023/01/30 05:41:48;;;;;;;16.63;12.33;;;;;;;;;;5109948;28;20724;-79
2023/01/30 05:44:14;;;;;;;17.90;12.43;;;;;;;;;;5096576;28;20184;-79
2023/01/30 05:46:40;;;;;;;16.50;11.80;;;;;;;;;;5101395;28;20176;-80
2023/01/30 05:49:06;;;;;;;16.77;12.13;;;;;;;;;;5098620;28;20551;-78
2023/01/30 05:51:33;;;;;;;17.60;12.50;;;;;;;;;;5111894;28;20236;-80
2023/01/30 05:53:59;;;;;;;15.33;11.87;;;;;;;;;;5111041;28;20236;-78
2023/01/30 05:56:25;;;;;;;15.67;12.50;;;;;;;;;;5095388;28;20188;-78
2023/01/30 05:58:52;;;;;;;17.23;12.60;;;;;;;;;;5108850;28;20182;-79
2023/01/30 06:01:18;;;;;;;16.17;12.97;;;;;;;;;;5099539;28;20193;-78
2023/01/30 06:03:44;;;;;;;15.57;11.97;;;;;;;;;;5104206;28;20187;-79
2023/01/30 06:06:10;;;;;;;14.63;12.17;;;;;;;;;;5100833;28;21076;-78
2023/01/30 06:08:36;;;;;;;16.57;12.60;;;;;;;;;;5110735;28;20556;-78
2023/01/30 06:11:03;;;;;;;17.53;12.37;;;;;;;;;;5099451;28;20183;-80
2023/01/30 06:13:29;;;;;;;17.87;12.27;;;;;;;;;;5102080;28;20195;-81
2023/01/30 06:15:55;;;;;;;14.73;12.13;;;;;;;;;;5108742;28;20231;-78
2023/01/30 06:18:21;;;;;;;15.13;12.10;;;;;;;;;;5106338;27;20175;-79
2023/01/30 06:20:48;;;;;;;18.97;12.77;;;;;;;;;;5097217;27;20715;-79
2023/01/30 06:23:14;;;;;;;18.70;13.47;;;;;;;;;;5095592;28;20180;-77
2023/01/30 06:25:47;;;;;;;17.00;13.37;;;;;;;;;;5108675;28;20183;-77
2023/01/30 06:28:13;;;;;;;16.13;12.80;;;;;;;;;;5108465;27;20275;-79
2023/01/30 06:30:40;;;;;;;17.07;12.80;;;;;;;;;;5102674;27;20215;-79
2023/01/30 06:33:06;;;;;;;16.93;13.40;;;;;;;;;;5104112;27;20222;-79
2023/01/30 06:35:32;;;;;;;18.13;12.83;;;;;;;;;;5103201;27;20234;-77
2023/01/30 06:37:58;;;;;;;16.97;13.13;;;;;;;;;;5104797;28;20212;-79
2023/01/30 06:40:24;;;;;;;17.77;13.60;;;;;;;;;;5106443;27;20703;-79
2023/01/30 06:42:50;;;;;;;16.17;13.17;;;;;;;;;;5108061;27;20180;-79
2023/01/30 06:45:17;;;;;;;16.80;13.20;;;;;;;;;;5112922;27;20195;-78
2023/01/30 06:47:46;;;;;;;17.13;13.63;;;;;;;;;;5113223;27;20176;-78
2023/01/30 06:50:12;;;;;;;18.47;13.73;;;;;;;;;;5100572;28;20180;-78
2023/01/30 06:52:42;;;;;;;18.03;13.43;;;;;;;;;;5106496;27;20214;-82
2023/01/30 06:55:12;;;;;;;15.80;12.47;;;;;;;;;;5113422;27;20246;-78
2023/01/30 06:57:38;;;;;;;18.10;13.23;;;;;;;;;;5118052;27;20257;-79
2023/01/30 07:00:05;;;;;;;16.90;12.63;;;;;;;;;;5110936;27;20274;-79
2023/01/30 07:02:34;;;;;;;19.73;13.87;;;;;;;;;;5095676;27;20173;-78
2023/01/30 07:05:00;;;;;;;15.53;12.27;;;;;;;;;;5098265;28;20227;-78
2023/01/30 07:07:26;;;;;;;19.07;14.00;;;;;;;;;;5102761;27;20188;-78
2023/01/30 07:09:52;;;;;;;16.43;12.87;;;;;;;;;;5108001;27;20182;-78
2023/01/30 07:12:19;;;;;;;16.43;13.53;;;;;;;;;;5111740;28;20179;-78
2023/01/30 07:14:45;;;;;;;21.67;13.63;;;;;;;;;;5099146;27;20534;-78
2023/01/30 07:17:11;;;;;;;17.47;13.70;;;;;;;;;;5101217;28;20258;-78
2023/01/30 07:19:37;;;;;;;18.00;13.60;;;;;;;;;;5117163;27;20207;-78
2023/01/30 07:22:04;;;;;;;19.63;13.73;;;;;;;;;;5112328;27;20586;-78
2023/01/30 07:24:30;;;;;;;20.23;14.33;;;;;;;;;;5112699;27;20212;-79
2023/01/30 07:26:56;;;;;;;20.43;14.53;;;;;;;;;;5116442;27;20190;-78
2023/01/30 07:29:22;;;;;;;19.13;13.53;;;;;;;;;;5094911;27;20180;-78
2023/01/30 07:31:48;;;;;;;18.67;14.70;;;;;;;;;;5116678;27;20242;-79
2023/01/30 07:34:14;;;;;;;20.43;15.10;;;;;;;;;;5113228;27;20211;-78
2023/01/30 07:36:40;;;;;;;21.70;15.73;;;;;;;;;;5115018;28;20192;-78
2023/01/30 07:39:08;;;;;;;22.50;15.97;;;;;;;;;;5117024;27;20178;-79
2023/01/30 07:41:34;;;;;;;24.03;15.93;;;;;;;;;;5098666;28;20176;-81
2023/01/30 07:44:00;;;;;;;33.00;16.83;;;;;;;;;;5096441;28;20257;-79
2023/01/30 07:46:27;;;;;;;21.23;16.40;;;;;;;;;;5100925;27;20213;-79
2023/01/30 07:48:54;;;;;;;24.37;17.20;;;;;;;;;;5101828;27;20564;-78
2023/01/30 07:51:20;;;;;;;24.13;17.57;;;;;;;;;;5101565;28;20648;-79
2023/01/30 07:53:49;;;;;;;24.70;18.43;;;;;;;;;;5100540;27;20299;-78
2023/01/30 07:56:18;;;;;;;24.53;19.13;;;;;;;;;;5105093;28;20175;-78
2023/01/30 07:58:44;;;;;;;25.63;18.40;;;;;;;;;;5111738;27;20183;-78
2023/01/30 08:01:10;;;;;;;26.63;17.63;;;;;;;;;;5114678;27;20514;-78
2023/01/30 08:03:36;;;;;;;26.00;18.63;;;;;;;;;;5107664;28;20186;-79
2023/01/30 08:06:01;;;;;;;28.07;20.93;;;;;;;;;;5093994;28;20257;-79
2023/01/30 08:08:28;;;;;;;32.63;21.67;;;;;;;;;;5108787;28;20182;-79
2023/01/30 08:10:54;;;;;;;28.93;21.20;;;;;;;;;;5113432;28;20182;-79
2023/01/30 08:13:20;;;;;;;29.63;21.80;;;;;;;;;;5105443;28;20568;-79
2023/01/30 08:15:46;;;;;;;31.73;21.97;;;;;;;;;;5103658;28;20188;-79
2023/01/30 08:18:12;;;;;;;29.87;20.80;;;;;;;;;;5112763;28;20179;-79
2023/01/30 08:20:38;;;;;;;28.43;20.30;;;;;;;;;;5110856;28;20180;-79
2023/01/30 08:23:04;;;;;;;31.93;23.17;;;;;;;;;;5100732;28;20188;-79
2023/01/30 08:25:30;;;;;;;31.63;22.67;;;;;;;;;;5101536;28;20597;-79
2023/01/30 08:27:59;;;;;;;29.73;23.20;;;;;;;;;;5103152;28;20700;-79
2023/01/30 08:30:25;;;;;;;33.70;22.67;;;;;;;;;;5118051;28;20186;-79
2023/01/30 08:32:51;;;;;;;33.60;22.97;;;;;;;;;;5098192;28;20219;-78
2023/01/30 08:35:17;;;;;;;33.10;23.27;;;;;;;;;;5105888;28;20635;-78
2023/01/30 08:37:43;;;;;;;32.87;22.93;;;;;;;;;;5103858;27;20203;-78
2023/01/30 08:40:09;;;;;;;37.77;24.33;;;;;;;;;;5103534;27;20180;-78
2023/01/30 08:42:35;;;;;;;32.73;23.77;;;;;;;;;;5107042;27;20215;-78
2023/01/30 08:45:01;;;;;;;33.00;24.37;;;;;;;;;;5110989;27;20215;-78
2023/01/30 08:47:27;;;;;;;35.53;24.53;;;;;;;;;;5098528;27;20180;-78
2023/01/30 08:49:53;;;;;;;32.67;24.07;;;;;;;;;;5113985;28;20548;-78
2023/01/30 08:52:20;;;;;;;33.17;23.80;;;;;;;;;;5108525;27;20191;-78
2023/01/30 08:54:46;;;;;;;33.80;24.93;;;;;;;;;;5112482;27;20696;-78
2023/01/30 08:57:13;;;;;;;32.57;23.90;;;;;;;;;;5116374;27;20183;-77
2023/01/30 08:59:39;;;;;;;37.03;26.17;;;;;;;;;;5116329;27;20190;-78
2023/01/30 09:02:05;;;;;;;35.83;25.33;;;;;;;;;;5115356;27;20415;-78
2023/01/30 09:04:32;;;;;;;41.70;27.67;;;;;;;;;;5111285;27;20575;-78
2023/01/30 09:06:58;;;;;;;42.50;25.50;;;;;;;;;;5108566;27;20187;-79
2023/01/30 09:09:24;;;;;;;36.37;24.97;;;;;;;;;;5114040;27;20193;-78
2023/01/30 09:11:50;;;;;;;36.70;25.87;;;;;;;;;;5099541;27;20180;-79
2023/01/30 09:14:18;;;;;;;34.87;25.30;;;;;;;;;;5098515;27;20203;-79
2023/01/30 09:16:45;;;;;;;37.13;24.80;;;;;;;;;;5103235;27;20214;-78
2023/01/30 09:19:11;;;;;;;37.83;25.47;;;;;;;;;;5119034;27;20272;-78
2023/01/30 09:21:37;;;;;;;32.37;24.50;;;;;;;;;;5114590;27;20199;-79
2023/01/30 09:24:04;;;;;;;36.43;26.00;;;;;;;;;;5112031;27;20237;-78
2023/01/30 09:26:30;;;;;;;33.07;24.70;;;;;;;;;;5108269;27;20644;-78
2023/01/30 09:28:56;;;;;;;32.90;24.93;;;;;;;;;;5102485;27;20714;-78
2023/01/30 09:31:22;;;;;;;33.07;24.47;;;;;;;;;;5117521;27;20211;-78
2023/01/30 09:33:48;;;;;;;33.03;23.77;;;;;;;;;;5113387;27;20327;-78
2023/01/30 09:36:14;;;;;;;36.07;26.23;;;;;;;;;;5116045;27;22899;-78
2023/01/30 09:38:40;;;;;;;29.27;22.00;;;;;;;;;;5104615;28;20181;-79
2023/01/30 09:41:32;;;;;;;35.10;23.80;;;;;;;;;;5116843;27;20253;-80
2023/01/30 09:44:01;;;;;;;27.70;20.87;;;;;;;;;;5108883;27;20697;-78
2023/01/30 09:46:46;;;;;;;29.70;22.23;;;;;;;;;;5109211;27;20187;-79
2023/01/30 09:49:22;;;;;;;30.03;21.17;;;;;;;;;;5102878;27;20188;-78
2023/01/30 09:52:07;;;;;;;30.00;21.77;;;;;;;;;;5104004;27;20573;-80
2023/01/30 09:54:35;;;;;;;29.40;21.23;;;;;;;;;;5105413;27;20223;-80
2023/01/30 09:57:09;;;;;;;30.57;22.27;;;;;;;;;;5115115;27;20190;-80
2023/01/30 09:59:42;;;;;;;29.23;21.87;;;;;;;;;;5114416;28;20244;-78
2023/01/30 10:02:08;;;;;;;28.23;20.77;;;;;;;;;;5098697;28;20175;-78
2023/01/30 10:04:36;;;;;;;30.97;22.93;;;;;;;;;;5103570;27;20202;-78
2023/01/30 10:07:14;;;;;;;33.33;22.13;;;;;;;;;;5102673;27;20195;-78
2023/01/30 10:09:59;;;;;;;28.40;21.07;;;;;;;;;;5114696;27;20196;-78
2023/01/30 10:12:45;;;;;;;27.00;20.10;;;;;;;;;;5109907;27;20225;-78
2023/01/30 10:15:15;;;;;;;28.60;20.33;;;;;;;;;;5095195;27;20236;-78
2023/01/30 10:17:59;;;;;;;26.67;19.87;;;;;;;;;;5111405;27;20178;-78
2023/01/30 10:20:44;;;;;;;28.70;21.63;;;;;;;;;;5098987;28;20392;-78
2023/01/30 10:23:17;;;;;;;26.70;20.07;;;;;;;;;;5110369;28;20175;-78
2023/01/30 10:25:52;;;;;;;30.03;21.47;;;;;;;;;;5114915;27;20194;-78
2023/01/30 10:28:22;;;;;;;32.10;22.20;;;;;;;;;;5106726;27;20211;-77
2023/01/30 10:30:50;;;;;;;29.03;22.00;;;;;;;;;;5104180;27;20179;-80
2023/01/30 10:33:16;;;;;;;26.77;20.70;;;;;;;;;;5114307;27;20695;-78
2023/01/30 10:35:43;;;;;;;30.77;22.50;;;;;;;;;;5096539;27;20215;-79
2023/01/30 10:38:12;;;;;;;31.37;22.90;;;;;;;;;;5098127;28;20247;-80
2023/01/30 10:40:40;;;;;;;30.50;21.83;;;;;;;;;;5102716;27;20184;-80
2023/01/30 10:43:15;;;;;;;32.10;22.03;;;;;;;;;;5103753;27;20192;-78
2023/01/30 10:45:41;;;;;;;33.47;23.37;;;;;;;;;;5101017;27;20256;-77
2023/01/30 10:48:26;;;;;;;32.57;23.60;;;;;;;;;;5110046;27;20640;-80
2023/01/30 10:50:54;;;;;;;31.97;23.23;;;;;;;;;;5095670;27;20178;-79
2023/01/30 10:53:26;;;;;;;28.20;21.80;;;;;;;;;;5091507;28;20180;-78
2023/01/30 10:56:13;;;;;;;33.50;23.43;;;;;;;;;;5103887;27;20207;-78
2023/01/30 10:58:42;;;;;;;27.33;20.23;;;;;;;;;;5110057;27;20214;-78
2023/01/30 11:01:14;;;;;;;30.90;21.47;;;;;;;;;;5114704;27;20690;-78
2023/01/30 11:03:58;;;;;;;28.87;22.17;;;;;;;;;;5111982;27;20187;-79
2023/01/30 11:06:25;;;;;;;30.37;22.23;;;;;;;;;;5112153;28;20194;-78
2023/01/30 11:08:52;;;;;;;28.80;20.13;;;;;;;;;;5094497;27;20275;-78
2023/01/30 11:11:25;;;;;;;24.43;18.97;;;;;;;;;;5112391;27;20306;-79
2023/01/30 11:13:51;;;;;;;30.77;20.60;;;;;;;;;;5101522;27;20216;-78
2023/01/30 11:16:17;;;;;;;26.93;18.90;;;;;;;;;;5100691;27;20187;-78
2023/01/30 11:18:48;;;;;;;25.93;19.13;;;;;;;;;;5104435;27;20179;-79
2023/01/30 11:21:19;;;;;;;24.03;18.43;;;;;;;;;;5109974;27;20629;-79
2023/01/30 11:23:45;;;;;;;24.17;17.43;;;;;;;;;;5095149;27;20191;-78
2023/01/30 11:26:20;;;;;;;24.47;19.07;;;;;;;;;;5106997;28;20182;-78
2023/01/30 11:28:47;;;;;;;21.33;16.57;;;;;;;;;;5105579;27;20183;-78
2023/01/30 11:31:21;;;;;;;23.17;17.70;;;;;;;;;;5105588;27;20694;-79
2023/01/30 11:33:59;;;;;;;20.97;17.30;;;;;;;;;;5110958;27;20220;-79
2023/01/30 11:36:34;;;;;;;21.07;16.60;;;;;;;;;;5111976;27;20248;-79
2023/01/30 11:39:04;;;;;;;21.87;16.60;;;;;;;;;;5098596;27;20531;-78
2023/01/30 11:41:31;;;;;;;21.83;15.87;;;;;;;;;;5108667;28;20178;-79
2023/01/30 11:44:04;;;;;;;20.00;16.03;;;;;;;;;;5113059;27;20211;-79
2023/01/30 11:46:34;;;;;;;20.97;16.77;;;;;;;;;;5100253;28;20179;-79
2023/01/30 11:49:02;;;;;;;21.03;16.33;;;;;;;;;;5105324;27;20190;-79
2023/01/30 11:51:29;;;;;;;19.30;15.80;;;;;;;;;;5113309;27;20274;-78
2023/01/30 11:54:12;;;;;;;19.73;14.87;;;;;;;;;;5112300;27;20286;-78
2023/01/30 11:56:41;;;;;;;17.37;15.13;;;;;;;;;;5107255;27;20178;-79
2023/01/30 11:59:21;;;;;;;20.00;15.33;;;;;;;;;;5113039;28;20176;-79
2023/01/30 12:01:48;;;;;;;18.10;15.03;;;;;;;;;;5100300;27;20270;-78
2023/01/30 12:04:14;;;;;;;18.93;14.73;;;;;;;;;;5100895;27;20280;-78
2023/01/30 12:06:41;;;;;;;18.57;15.33;;;;;;;;;;5095663;28;20177;-79
2023/01/30 12:09:28;;;;;;;21.97;16.13;;;;;;;;;;5111752;27;20707;-79
2023/01/30 12:11:54;;;;;;;20.60;16.33;;;;;;;;;;5094946;28;20689;-79
2023/01/30 12:14:41;;;;;;;20.90;16.00;;;;;;;;;;5111710;28;20570;-78
2023/01/30 12:17:26;;;;;;;21.40;16.73;;;;;;;;;;5113157;28;20191;-79
2023/01/30 12:20:01;;;;;;;21.47;17.23;;;;;;;;;;5099076;28;20212;-79
2023/01/30 12:22:46;;;;;;;22.13;17.17;;;;;;;;;;5110052;28;20187;-79
2023/01/30 12:25:34;;;;;;;20.83;16.50;;;;;;;;;;5106522;28;20247;-79
2023/01/30 12:28:19;;;;;;;20.30;16.20;;;;;;;;;;5100524;28;20542;-79
2023/01/30 12:30:55;;;;;;;17.57;14.70;;;;;;;;;;5106947;28;20176;-79
2023/01/30 12:33:22;;;;;;;19.50;16.43;;;;;;;;;;5112305;28;20233;-79
2023/01/30 12:35:47;;;;;;;21.73;15.70;;;;;;;;;;5111450;28;20239;-79
2023/01/30 12:38:33;;;;;;;19.23;15.03;;;;;;;;;;5112869;28;20612;-79
2023/01/30 12:41:04;;;;;;;17.43;14.77;;;;;;;;;;5110984;28;20267;-79
2023/01/30 12:43:30;;;;;;;17.83;13.97;;;;;;;;;;5111925;28;20188;-79
2023/01/30 12:45:59;;;;;;;18.03;15.13;;;;;;;;;;5109412;28;20605;-79
2023/01/30 12:48:32;;;;;;;17.63;14.70;;;;;;;;;;5099098;28;20178;-79
2023/01/30 12:51:20;;;;;;;17.47;14.67;;;;;;;;;;5112121;28;20639;-79
2023/01/30 12:54:04;;;;;;;20.43;15.77;;;;;;;;;;5105233;28;20187;-78
2023/01/30 12:56:39;;;;;;;18.83;14.50;;;;;;;;;;5110118;28;20179;-79
2023/01/30 12:59:20;;;;;;;19.00;15.83;;;;;;;;;;5112815;28;20172;-79
2023/01/30 13:02:16;;;;;;;19.33;16.40;;;;;;;;;;5101304;28;20271;-79
2023/01/30 13:04:56;;;;;;;18.23;15.33;;;;;;;;;;5048331;28;20198;-79
2023/01/30 13:07:30;;;;;;;18.40;15.57;;;;;;;;;;5047739;28;20197;-79
2023/01/30 13:09:56;;;;;;;22.93;17.73;;;;;;;;;;5048177;28;20568;-79
2023/01/30 13:12:25;;;;;;;20.40;16.40;;;;;;;;;;5026661;28;20178;-79
2023/01/30 13:15:17;;;;;;;25.40;17.77;;;;;;;;;;5045154;28;20221;-79
2023/01/30 13:18:02;;;;;;;23.90;18.67;;;;;;;;;;5004213;28;20199;-79
2023/01/30 13:20:40;;;;;;;21.57;17.27;;;;;;;;;;5007966;28;20585;-79
2023/01/30 13:23:15;;;;;;;22.77;17.70;;;;;;;;;;4995189;28;20199;-79
2023/01/30 13:25:44;;;;;;;21.37;17.87;;;;;;;;;;5011415;28;20230;-79
2023/01/30 13:28:17;;;;;;;22.27;18.50;;;;;;;;;;5007233;28;20243;-79
2023/01/30 13:30:45;;;;;;;22.60;17.27;;;;;;;;;;4999986;28;20185;-79
2023/01/30 13:33:20;;;;;;;21.47;16.63;;;;;;;;;;4995704;28;20214;-79
2023/01/30 13:35:49;;;;;;;24.43;18.67;;;;;;;;;;5010740;28;20276;-79
2023/01/30 13:38:20;;;;;;;24.77;18.13;;;;;;;;;;5010435;28;20194;-79
2023/01/30 13:40:48;;;;;;;23.17;18.43;;;;;;;;;;5035880;28;20193;-79
2023/01/30 13:43:35;;;;;;;25.67;19.73;;;;;;;;;;5053652;28;20231;-79
2023/01/30 13:46:05;;;;;;;23.60;17.97;;;;;;;;;;5070250;28;20212;-79
2023/01/30 13:48:43;;;;;;;22.90;18.10;;;;;;;;;;5070491;28;20189;-79
2023/01/30 13:51:15;;;;;;;22.47;18.07;;;;;;;;;;5056621;28;20180;-80
2023/01/30 13:54:01;;;;;;;23.33;18.57;;;;;;;;;;5060589;28;20189;-79
2023/01/30 13:56:48;;;;;;;22.87;17.97;;;;;;;;;;5094833;28;20637;-79
2023/01/30 13:59:19;;;;;;;20.33;17.70;;;;;;;;;;5110668;28;20179;-82
2023/01/30 14:02:03;;;;;;;21.50;17.73;;;;;;;;;;5102699;27;20724;-80
2023/01/30 14:04:38;;;;;;;24.60;18.03;;;;;;;;;;5100814;27;20191;-80
2023/01/30 14:07:23;;;;;;;23.13;18.00;;;;;;;;;;5104555;27;20210;-80
2023/01/30 14:09:52;;;;;;;23.33;18.97;;;;;;;;;;5094264;27;20176;-79
2023/01/30 14:12:19;;;;;;;23.03;18.50;;;;;;;;;;5112571;27;20695;-79
2023/01/30 14:15:04;;;;;;;22.40;17.97;;;;;;;;;;5094750;27;20235;-80
2023/01/30 14:17:30;;;;;;;22.13;17.60;;;;;;;;;;5105853;28;20180;-79
2023/01/30 14:19:58;;;;;;;21.47;17.70;;;;;;;;;;5102672;27;20187;-79
2023/01/30 14:22:27;;;;;;;21.40;17.17;;;;;;;;;;5099780;27;20181;-79
2023/01/30 14:25:12;;;;;;;23.27;19.53;;;;;;;;;;5103337;27;20179;-80
2023/01/30 14:27:38;;;;;;;22.77;18.47;;;;;;;;;;5099893;27;20210;-79
2023/01/30 14:30:24;;;;;;;23.47;17.47;;;;;;;;;;5094364;27;20241;-79
2023/01/30 14:32:52;;;;;;;26.10;19.93;;;;;;;;;;5107003;27;20251;-79
2023/01/30 14:35:22;;;;;;;25.50;18.13;;;;;;;;;;5106145;27;20203;-82
2023/01/30 14:38:04;;;;;;;23.97;18.33;;;;;;;;;;5099676;27;20211;-81
2023/01/30 14:40:32;;;;;;;26.03;20.33;;;;;;;;;;5104947;28;20187;-81